Terminal Aerodrome Forecast
Issued by NWS Milwaukee/Sullivan, WI

Home | Current Version | Previous Version | Text Only | Print | Product List | Glossary On
Versions: 1 2 3 4 5 6 7 8 9 10 11 12 13 14 15 16 17 18 19 20 21 22 23 24 25 26 27 28 29
000
FTUS43 KMKX 230336 AAC
TAFMSN
TAF AMD
KMSN 230336Z 2304/2324 02008KT 6SM -SN BR OVC006
     FM230600 36008KT 4SM -SN BR OVC003
     FM230800 35010KT P6SM VCSH OVC008
     FM231200 34012G20KT P6SM OVC015
     FM232100 32012KT P6SM BKN020=

USA.gov is the U.S. government's official web portal to all federal, state and local government web resources and services.